Raymond, California
Current Conditions -  °F | °C
As of 10:53 AM on Saturday 25 Oct 2014 (Local Time) from KMAE Reporting Station
Clear Clear  
Wind Chill: 71°   Ceiling: Unl
Heat Index: 71°   Visibility: 9mi
Dew Point: 44°   Wind: 8mph
Humidity: 38%   Direction: 180°S
Pressure: 30.06"   Gusts: NA
Location:  37.22°N, 119.91°W
Report Text: KMAE 251753Z AUTO 18007KT 9SM CLR 22/07 A3006 RMK AO2 SLP176 T02170067 10217 20128 53015
Loading
Personal Weather Stations






























Interactive Weather Map
Tropical Storm Tracking
New forecast layout! Learn more

10-Day Weather Forecast

Advertisements
Track Severe Weather on mobile